CheckWX is a tool to help pilots better visualize weather data.  It is not intended as a substitute for an official pre-flight weather briefing.

22:36:34 UTC

EHWO METAR
Woensdrecht Air Base Airport
Bergen Op Zoom, The Netherlands
Current

12 mins ago

EHWO 062225Z AUTO 25017KT 230V290 9999 FEW025 BKN041 OVC047 10/08 Q1005 BLU
Observed
Dec-6 @ 22:25 UTC
Wind
  • 250° at 17 KTS
Visibility
10,000+ meters
Flight Rules
VFR
Cloud Levels
  • Few at 2,500' AGL
  • Broken at 4,100' AGL
  • Overcast at 4,700' AGL
Temperature
10°C / 50°F
Dewpoint
C / 46°F
Humidity
88%
Altimeter
29.68" Hg
Pressure
1004.92 hPa
Previous

41 mins ago

EHWO 062156Z AUTO 26017KT 230V300 9999 FEW010 FEW015CB SCT027 BKN042 10/08 Q1004 BLU
Observed
Dec-6 @ 21:56 UTC
Wind
  • 260° at 17 KTS
Visibility
10,000+ meters
Flight Rules
VFR
Cloud Levels
  • Few at 1,000' AGL
  • Few at 1,500' AGL
  • Scattered at 2,700' AGL
  • Broken at 4,200' AGL
Temperature
10°C / 50°F
Dewpoint
C / 46°F
Humidity
88%
Altimeter
29.65" Hg
Pressure
1003.92 hPa
Previous

42 mins ago

EHWO 062155Z AUTO 26016KT 230V310 9999 -RA SCT010 BKN012 FEW015CB BKN027 10/08 Q1004 RERA REDZ GRN
Observed
Dec-6 @ 21:55 UTC
Wind
  • 260° at 16 KTS
Visibility
10,000+ meters
Flight Rules
MVFR
Conditions
Light Rain
Cloud Levels
  • Scattered at 1,000' AGL
  • Broken at 1,200' AGL
  • Few at 1,500' AGL
  • Broken at 2,700' AGL
Temperature
10°C / 50°F
Dewpoint
C / 46°F
Humidity
88%
Altimeter
29.65" Hg
Pressure
1003.92 hPa